Kekaha, HI

11:29 AM HST on August 21, 2014 (GMT -1000)
Na Pali Properties on Kauai | Change Station
CLOSE
Current Station
Personal Weather Station
Location: Hanalei, HI
Elevation: 36 ft
Nearby Weather Stations
Active Advisory: High Surf Advisory

Elev 36 ft 22.20 °N, 159.50 °W | Updated 2 seconds ago

Clear
Clear
83.8 °F
Feels Like 89 °F
N
4.0
Wind Variable Wind from North
Gusts 6.3 mph

Today
High -- | Low -- °F
--% Chance of Precip.
Yesterday
High -- | Low -- °F
Precip. -- in
6:18 AM 7:04 PM
Waning Crescent, 12% visible
Pressure 30.04 in
Visibility 10.0 miles
Clouds Clear
Heat Index 89 °F
Dew Point 72 °F
Humidity 67%
Rainfall 0.00 in
Snow Depth Not available.
UV 10 out of 12
Pollen Not available.
Air Quality Not available.
Flu Activity Not available.
METAR PHBK 212056Z AUTO 29005KT 10SM CLR 28/12 A3004 RMK AO2 SLP173 T02780117 50001 TSNO $

More Conditions Fewer Conditions

Pressure 30.04 in
Visibility 10.0 miles
Clouds Clear
Heat Index 89 °F
Dew Point 72 °F
Humidity 67%
Rainfall 0.00 in
Snow Depth Not available.
UV 10 out of 12
Pollen Not available.
Air Quality Not available.
Flu Activity Not available.
METAR PHBK 212056Z AUTO 29005KT 10SM CLR 28/12 A3004 RMK AO2 SLP173 T02780117 50001 TSNO $

More Conditions Fewer Conditions

10-Day Weather Forecast

Almanac

Astronomy

Aug. 21, 2014 Rise Set
Actual Time 6:18 AM HST 7:04 PM HST
Civil Twilight 5:55 AM HST 7:27 PM HST
Nautical Twilight 5:28 AM HST 7:54 PM HST
Astronomical Twilight 5:01 AM HST 8:22 PM HST
Moon 3:10 AM HST 4:32 PM HST
Length of Visible Light 13h 32m
Length of Day
12h 46m
Tomorrow will be 1m 8s shorter.
Waning Crescent, 12% of the Moon is Illuminated
Today
Waning Crescent
Aug 25
New
Sep 2
First Quarter
Sep 8
Full
Sep 15
Last Quarter

Today's Extremes

State Highs State Lows

Community

WunderPhotos

Upload Photos

1,746,021 photos uploaded!

WunderBlogs® & News

Nearby

Snow Depth

Station Depth Elevation
No new snow has been reported.

Earthquake Activity

City Distance Mag. Time & Date
No recent earthquake activity has been reported nearby.
Minimum magnitude displayed is 2.5.

Coastal Water Temperatures

Place Temperature
No Stations Reporting

Nearby Weather Stations